sensor_id;sensor_type;location;lat;lon;timestamp;P1;durP1;ratioP1;P2;durP2;ratioP2
43756;SDS011;45574;41.864;12.462;2022-09-27T00:00:26;16.73;;;3.53;;
43756;SDS011;45574;41.864;12.462;2022-09-27T00:03:12;17.45;;;3.15;;
43756;SDS011;45574;41.864;12.462;2022-09-27T00:06:07;21.58;;;3.40;;
43756;SDS011;45574;41.864;12.462;2022-09-27T00:08:54;19.73;;;3.80;;
43756;SDS011;45574;41.864;12.462;2022-09-27T00:11:41;17.17;;;3.15;;
43756;SDS011;45574;41.864;12.462;2022-09-27T00:14:32;16.33;;;3.60;;
43756;SDS011;45574;41.864;12.462;2022-09-27T00:17:18;21.25;;;3.10;;
43756;SDS011;45574;41.864;12.462;2022-09-27T00:20:05;23.48;;;3.25;;
43756;SDS011;45574;41.864;12.462;2022-09-27T00:22:52;20.05;;;3.20;;
43756;SDS011;45574;41.864;12.462;2022-09-27T00:25:39;21.08;;;4.07;;
43756;SDS011;45574;41.864;12.462;2022-09-27T00:28:26;15.32;;;3.05;;
43756;SDS011;45574;41.864;12.462;2022-09-27T00:31:16;24.70;;;4.00;;
43756;SDS011;45574;41.864;12.462;2022-09-27T00:34:26;14.95;;;3.13;;
43756;SDS011;45574;41.864;12.462;2022-09-27T00:37:12;21.20;;;3.70;;
43756;SDS011;45574;41.864;12.462;2022-09-27T00:39:59;23.25;;;3.67;;
43756;SDS011;45574;41.864;12.462;2022-09-27T00:42:49;20.67;;;3.00;;
43756;SDS011;45574;41.864;12.462;2022-09-27T00:45:35;25.50;;;3.47;;
43756;SDS011;45574;41.864;12.462;2022-09-27T00:48:23;14.07;;;3.35;;
43756;SDS011;45574;41.864;12.462;2022-09-27T00:51:13;18.88;;;3.33;;
43756;SDS011;45574;41.864;12.462;2022-09-27T00:54:01;23.38;;;4.75;;
43756;SDS011;45574;41.864;12.462;2022-09-27T00:56:49;22.55;;;3.58;;
43756;SDS011;45574;41.864;12.462;2022-09-27T00:59:38;24.05;;;4.22;;
43756;SDS011;45574;41.864;12.462;2022-09-27T01:02:31;16.55;;;3.10;;
43756;SDS011;45574;41.864;12.462;2022-09-27T01:05:19;16.02;;;3.22;;
43756;SDS011;45574;41.864;12.462;2022-09-27T01:08:08;18.90;;;3.80;;
43756;SDS011;45574;41.864;12.462;2022-09-27T01:11:08;23.23;;;3.70;;
43756;SDS011;45574;41.864;12.462;2022-09-27T01:14:19;26.80;;;4.35;;
43756;SDS011;45574;41.864;12.462;2022-09-27T01:42:02;24.45;;;4.38;;
43756;SDS011;45574;41.864;12.462;2022-09-27T01:45:02;21.00;;;3.78;;
43756;SDS011;45574;41.864;12.462;2022-09-27T01:52:15;17.00;;;3.90;;
43756;SDS011;45574;41.864;12.462;2022-09-27T01:54:42;27.27;;;4.43;;
43756;SDS011;45574;41.864;12.462;2022-09-27T01:57:58;19.20;;;4.18;;
43756;SDS011;45574;41.864;12.462;2022-09-27T02:00:54;21.60;;;3.67;;
43756;SDS011;45574;41.864;12.462;2022-09-27T02:03:45;21.70;;;4.30;;
43756;SDS011;45574;41.864;12.462;2022-09-27T02:07:11;18.92;;;3.85;;
43756;SDS011;45574;41.864;12.462;2022-09-27T02:10:10;20.92;;;3.65;;
43756;SDS011;45574;41.864;12.462;2022-09-27T02:16:02;18.90;;;3.85;;
43756;SDS011;45574;41.864;12.462;2022-09-27T02:22:14;24.70;;;3.90;;
43756;SDS011;45574;41.864;12.462;2022-09-27T02:28:49;24.42;;;4.40;;
43756;SDS011;45574;41.864;12.462;2022-09-27T02:31:45;27.80;;;4.35;;
43756;SDS011;45574;41.864;12.462;2022-09-27T02:34:32;28.25;;;4.00;;
43756;SDS011;45574;41.864;12.462;2022-09-27T02:37:23;21.00;;;4.05;;
43756;SDS011;45574;41.864;12.462;2022-09-27T02:40:09;19.48;;;3.63;;
43756;SDS011;45574;41.864;12.462;2022-09-27T02:42:56;23.80;;;3.92;;
43756;SDS011;45574;41.864;12.462;2022-09-27T02:48:39;22.58;;;4.43;;
43756;SDS011;45574;41.864;12.462;2022-09-27T02:51:42;23.30;;;4.20;;
43756;SDS011;45574;41.864;12.462;2022-09-27T03:02:31;25.00;;;4.07;;
43756;SDS011;45574;41.864;12.462;2022-09-27T03:05:47;33.28;;;4.18;;
43756;SDS011;45574;41.864;12.462;2022-09-27T03:08:39;25.20;;;3.78;;
43756;SDS011;45574;41.864;12.462;2022-09-27T03:11:27;30.48;;;4.05;;
43756;SDS011;45574;41.864;12.462;2022-09-27T03:14:14;25.27;;;4.28;;
43756;SDS011;45574;41.864;12.462;2022-09-27T03:17:10;31.52;;;4.10;;
43756;SDS011;45574;41.864;12.462;2022-09-27T03:20:20;23.40;;;4.20;;
43756;SDS011;45574;41.864;12.462;2022-09-27T03:23:11;22.88;;;4.47;;
43756;SDS011;45574;41.864;12.462;2022-09-27T03:25:58;26.73;;;4.70;;
43756;SDS011;45574;41.864;12.462;2022-09-27T03:28:48;24.75;;;4.47;;
43756;SDS011;45574;41.864;12.462;2022-09-27T03:31:34;15.90;;;3.20;;
43756;SDS011;45574;41.864;12.462;2022-09-27T03:34:50;20.58;;;4.47;;
43756;SDS011;45574;41.864;12.462;2022-09-27T03:37:37;22.70;;;4.18;;
43756;SDS011;45574;41.864;12.462;2022-09-27T03:40:24;21.48;;;3.72;;
43756;SDS011;45574;41.864;12.462;2022-09-27T03:43:11;29.42;;;4.10;;
43756;SDS011;45574;41.864;12.462;2022-09-27T03:45:59;20.98;;;4.00;;
43756;SDS011;45574;41.864;12.462;2022-09-27T03:48:45;12.77;;;3.50;;
43756;SDS011;45574;41.864;12.462;2022-09-27T03:51:32;20.50;;;4.20;;
43756;SDS011;45574;41.864;12.462;2022-09-27T03:54:18;21.60;;;4.03;;
43756;SDS011;45574;41.864;12.462;2022-09-27T03:57:05;22.80;;;4.00;;
43756;SDS011;45574;41.864;12.462;2022-09-27T03:59:52;17.20;;;3.58;;
43756;SDS011;45574;41.864;12.462;2022-09-27T04:02:57;21.30;;;3.78;;
43756;SDS011;45574;41.864;12.462;2022-09-27T04:05:44;26.90;;;4.07;;
43756;SDS011;45574;41.864;12.462;2022-09-27T04:08:35;21.40;;;3.80;;
43756;SDS011;45574;41.864;12.462;2022-09-27T04:11:22;23.65;;;3.95;;
43756;SDS011;45574;41.864;12.462;2022-09-27T04:14:09;23.40;;;3.70;;
43756;SDS011;45574;41.864;12.462;2022-09-27T04:17:06;24.20;;;3.90;;
43756;SDS011;45574;41.864;12.462;2022-09-27T04:20:10;16.98;;;3.63;;
43756;SDS011;45574;41.864;12.462;2022-09-27T04:22:59;24.17;;;4.20;;
43756;SDS011;45574;41.864;12.462;2022-09-27T04:25:46;19.73;;;3.45;;
43756;SDS011;45574;41.864;12.462;2022-09-27T04:31:36;20.13;;;3.70;;
43756;SDS011;45574;41.864;12.462;2022-09-27T04:34:32;17.23;;;3.20;;
43756;SDS011;45574;41.864;12.462;2022-09-27T04:37:41;22.63;;;3.97;;
43756;SDS011;45574;41.864;12.462;2022-09-27T04:40:32;26.80;;;3.97;;
43756;SDS011;45574;41.864;12.462;2022-09-27T04:43:19;21.98;;;3.60;;
43756;SDS011;45574;41.864;12.462;2022-09-27T04:46:06;24.23;;;4.20;;
43756;SDS011;45574;41.864;12.462;2022-09-27T04:48:53;22.98;;;3.70;;
43756;SDS011;45574;41.864;12.462;2022-09-27T04:51:39;23.83;;;3.63;;
43756;SDS011;45574;41.864;12.462;2022-09-27T04:54:26;28.02;;;4.25;;
43756;SDS011;45574;41.864;12.462;2022-09-27T04:57:26;19.85;;;3.90;;
43756;SDS011;45574;41.864;12.462;2022-09-27T05:00:13;20.17;;;4.45;;
43756;SDS011;45574;41.864;12.462;2022-09-27T05:03:02;30.35;;;4.30;;
43756;SDS011;45574;41.864;12.462;2022-09-27T05:06:12;17.27;;;4.20;;
43756;SDS011;45574;41.864;12.462;2022-09-27T05:08:59;22.45;;;4.63;;
43756;SDS011;45574;41.864;12.462;2022-09-27T05:11:53;18.77;;;3.65;;
43756;SDS011;45574;41.864;12.462;2022-09-27T05:14:59;21.73;;;3.90;;
43756;SDS011;45574;41.864;12.462;2022-09-27T05:18:04;25.50;;;4.82;;
43756;SDS011;45574;41.864;12.462;2022-09-27T05:21:22;30.25;;;4.85;;
43756;SDS011;45574;41.864;12.462;2022-09-27T05:24:09;22.48;;;4.80;;
43756;SDS011;45574;41.864;12.462;2022-09-27T05:26:55;27.13;;;4.65;;
43756;SDS011;45574;41.864;12.462;2022-09-27T05:29:42;25.27;;;4.90;;
43756;SDS011;45574;41.864;12.462;2022-09-27T05:32:38;28.70;;;5.32;;
43756;SDS011;45574;41.864;12.462;2022-09-27T05:35:58;21.38;;;4.35;;
43756;SDS011;45574;41.864;12.462;2022-09-27T05:38:48;26.30;;;4.88;;
43756;SDS011;45574;41.864;12.462;2022-09-27T05:41:39;23.27;;;5.53;;
43756;SDS011;45574;41.864;12.462;2022-09-27T05:44:26;24.30;;;4.82;;
43756;SDS011;45574;41.864;12.462;2022-09-27T05:47:17;26.38;;;5.72;;
43756;SDS011;45574;41.864;12.462;2022-09-27T05:50:04;19.30;;;4.85;;
43756;SDS011;45574;41.864;12.462;2022-09-27T05:52:51;26.08;;;4.95;;
43756;SDS011;45574;41.864;12.462;2022-09-27T05:55:41;26.70;;;5.38;;
43756;SDS011;45574;41.864;12.462;2022-09-27T05:58:29;23.17;;;4.30;;
43756;SDS011;45574;41.864;12.462;2022-09-27T06:01:29;19.75;;;4.85;;
43756;SDS011;45574;41.864;12.462;2022-09-27T06:04:34;18.08;;;4.82;;
43756;SDS011;45574;41.864;12.462;2022-09-27T06:07:41;20.73;;;4.32;;
43756;SDS011;45574;41.864;12.462;2022-09-27T06:10:35;22.10;;;4.25;;
43756;SDS011;45574;41.864;12.462;2022-09-27T06:13:24;24.35;;;4.55;;
43756;SDS011;45574;41.864;12.462;2022-09-27T06:16:12;23.05;;;4.10;;
43756;SDS011;45574;41.864;12.462;2022-09-27T06:19:01;24.65;;;4.78;;
43756;SDS011;45574;41.864;12.462;2022-09-27T06:21:49;24.52;;;5.15;;
43756;SDS011;45574;41.864;12.462;2022-09-27T06:24:39;17.85;;;4.00;;
43756;SDS011;45574;41.864;12.462;2022-09-27T06:27:32;20.77;;;4.00;;
43756;SDS011;45574;41.864;12.462;2022-09-27T06:30:25;19.60;;;4.18;;
43756;SDS011;45574;41.864;12.462;2022-09-27T06:33:23;26.05;;;4.20;;
43756;SDS011;45574;41.864;12.462;2022-09-27T06:36:12;19.27;;;4.47;;
43756;SDS011;45574;41.864;12.462;2022-09-27T06:39:03;22.70;;;4.07;;
43756;SDS011;45574;41.864;12.462;2022-09-27T06:42:22;20.58;;;4.00;;
43756;SDS011;45574;41.864;12.462;2022-09-27T06:45:33;20.20;;;3.80;;
43756;SDS011;45574;41.864;12.462;2022-09-27T06:48:56;16.95;;;3.33;;
43756;SDS011;45574;41.864;12.462;2022-09-27T06:51:43;18.52;;;4.70;;
43756;SDS011;45574;41.864;12.462;2022-09-27T06:54:29;22.60;;;4.25;;
43756;SDS011;45574;41.864;12.462;2022-09-27T06:57:18;18.30;;;4.35;;
43756;SDS011;45574;41.864;12.462;2022-09-27T07:04:02;17.67;;;4.15;;
43756;SDS011;45574;41.864;12.462;2022-09-27T07:07:07;19.23;;;3.63;;
43756;SDS011;45574;41.864;12.462;2022-09-27T07:09:59;23.30;;;4.18;;
43756;SDS011;45574;41.864;12.462;2022-09-27T07:12:48;17.73;;;3.90;;
43756;SDS011;45574;41.864;12.462;2022-09-27T07:15:43;40.00;;;7.18;;
43756;SDS011;45574;41.864;12.462;2022-09-27T07:18:33;20.60;;;4.47;;
43756;SDS011;45574;41.864;12.462;2022-09-27T07:21:21;27.77;;;4.68;;
43756;SDS011;45574;41.864;12.462;2022-09-27T07:24:08;19.20;;;4.30;;
43756;SDS011;45574;41.864;12.462;2022-09-27T07:27:09;23.33;;;4.35;;
43756;SDS011;45574;41.864;12.462;2022-09-27T07:29:58;21.02;;;4.38;;
43756;SDS011;45574;41.864;12.462;2022-09-27T07:33:13;17.02;;;4.22;;
43756;SDS011;45574;41.864;12.462;2022-09-27T07:36:28;20.38;;;4.60;;
43756;SDS011;45574;41.864;12.462;2022-09-27T07:44:23;23.08;;;4.20;;
43756;SDS011;45574;41.864;12.462;2022-09-27T08:04:48;11.80;;;3.10;;
43756;SDS011;45574;41.864;12.462;2022-09-27T08:08:51;12.35;;;2.50;;
43756;SDS011;45574;41.864;12.462;2022-09-27T08:17:11;15.82;;;3.03;;
43756;SDS011;45574;41.864;12.462;2022-09-27T08:21:14;16.40;;;3.47;;
43756;SDS011;45574;41.864;12.462;2022-09-27T08:25:08;17.02;;;3.17;;
43756;SDS011;45574;41.864;12.462;2022-09-27T08:29:19;14.18;;;2.80;;
43756;SDS011;45574;41.864;12.462;2022-09-27T08:37:09;10.05;;;2.45;;
43756;SDS011;45574;41.864;12.462;2022-09-27T08:49:32;13.73;;;2.75;;
43756;SDS011;45574;41.864;12.462;2022-09-27T08:53:19;8.20;;;2.50;;
43756;SDS011;45574;41.864;12.462;2022-09-27T08:57:05;7.90;;;2.67;;
43756;SDS011;45574;41.864;12.462;2022-09-27T09:00:05;10.20;;;2.58;;
43756;SDS011;45574;41.864;12.462;2022-09-27T09:03:01;10.38;;;2.40;;
43756;SDS011;45574;41.864;12.462;2022-09-27T09:26:06;7.35;;;2.10;;
43756;SDS011;45574;41.864;12.462;2022-09-27T09:32:16;15.43;;;2.83;;
43756;SDS011;45574;41.864;12.462;2022-09-27T09:35:25;14.02;;;2.40;;
43756;SDS011;45574;41.864;12.462;2022-09-27T09:41:21;16.00;;;2.63;;
43756;SDS011;45574;41.864;12.462;2022-09-27T09:44:29;14.95;;;3.17;;
43756;SDS011;45574;41.864;12.462;2022-09-27T09:50:26;7.97;;;2.40;;
43756;SDS011;45574;41.864;12.462;2022-09-27T09:56:19;12.40;;;2.42;;
43756;SDS011;45574;41.864;12.462;2022-09-27T09:59:16;9.32;;;2.20;;
43756;SDS011;45574;41.864;12.462;2022-09-27T10:02:13;10.07;;;2.83;;
43756;SDS011;45574;41.864;12.462;2022-09-27T10:05:28;11.40;;;2.63;;
43756;SDS011;45574;41.864;12.462;2022-09-27T10:08:21;11.85;;;2.75;;
43756;SDS011;45574;41.864;12.462;2022-09-27T10:11:41;15.40;;;3.13;;
43756;SDS011;45574;41.864;12.462;2022-09-27T10:14:36;13.25;;;2.67;;
43756;SDS011;45574;41.864;12.462;2022-09-27T10:17:26;11.45;;;2.85;;
43756;SDS011;45574;41.864;12.462;2022-09-27T10:23:35;10.55;;;2.50;;
43756;SDS011;45574;41.864;12.462;2022-09-27T10:27:19;13.45;;;2.92;;
43756;SDS011;45574;41.864;12.462;2022-09-27T10:33:15;9.30;;;2.50;;
43756;SDS011;45574;41.864;12.462;2022-09-27T10:36:21;9.43;;;2.50;;
43756;SDS011;45574;41.864;12.462;2022-09-27T10:39:22;11.75;;;2.50;;
43756;SDS011;45574;41.864;12.462;2022-09-27T10:48:24;10.63;;;2.47;;
43756;SDS011;45574;41.864;12.462;2022-09-27T10:51:27;9.68;;;2.50;;
43756;SDS011;45574;41.864;12.462;2022-09-27T10:54:28;11.48;;;2.58;;
43756;SDS011;45574;41.864;12.462;2022-09-27T10:57:23;12.77;;;2.80;;
43756;SDS011;45574;41.864;12.462;2022-09-27T11:03:14;14.23;;;3.03;;
43756;SDS011;45574;41.864;12.462;2022-09-27T11:09:45;15.18;;;3.72;;
43756;SDS011;45574;41.864;12.462;2022-09-27T11:13:03;9.18;;;2.63;;
43756;SDS011;45574;41.864;12.462;2022-09-27T11:16:03;16.63;;;2.95;;
43756;SDS011;45574;41.864;12.462;2022-09-27T11:23:27;10.88;;;2.97;;
43756;SDS011;45574;41.864;12.462;2022-09-27T11:46:32;9.95;;;2.28;;
43756;SDS011;45574;41.864;12.462;2022-09-27T11:49:25;15.55;;;3.00;;
43756;SDS011;45574;41.864;12.462;2022-09-27T12:29:57;18.13;;;3.70;;
43756;SDS011;45574;41.864;12.462;2022-09-27T13:47:36;14.10;;;2.70;;
43756;SDS011;45574;41.864;12.462;2022-09-27T13:53:36;14.88;;;2.47;;
43756;SDS011;45574;41.864;12.462;2022-09-27T14:09:43;15.15;;;3.08;;
43756;SDS011;45574;41.864;12.462;2022-09-27T14:13:00;14.00;;;2.90;;
43756;SDS011;45574;41.864;12.462;2022-09-27T14:15:53;15.55;;;2.88;;
43756;SDS011;45574;41.864;12.462;2022-09-27T14:19:37;16.92;;;2.97;;
43756;SDS011;45574;41.864;12.462;2022-09-27T14:22:34;19.30;;;3.50;;
43756;SDS011;45574;41.864;12.462;2022-09-27T14:25:48;14.15;;;2.92;;
43756;SDS011;45574;41.864;12.462;2022-09-27T14:29:13;7.28;;;2.10;;
43756;SDS011;45574;41.864;12.462;2022-09-27T14:32:15;14.35;;;2.38;;
43756;SDS011;45574;41.864;12.462;2022-09-27T14:35:14;16.30;;;2.90;;
43756;SDS011;45574;41.864;12.462;2022-09-27T14:38:28;13.52;;;3.13;;
43756;SDS011;45574;41.864;12.462;2022-09-27T14:41:22;12.23;;;2.85;;
43756;SDS011;45574;41.864;12.462;2022-09-27T14:44:45;13.43;;;2.45;;
43756;SDS011;45574;41.864;12.462;2022-09-27T14:47:53;11.73;;;2.88;;
43756;SDS011;45574;41.864;12.462;2022-09-27T14:50:51;14.00;;;3.27;;
43756;SDS011;45574;41.864;12.462;2022-09-27T14:53:46;20.67;;;3.60;;
43756;SDS011;45574;41.864;12.462;2022-09-27T14:57:01;15.60;;;3.42;;
43756;SDS011;45574;41.864;12.462;2022-09-27T14:59:52;19.08;;;3.65;;
43756;SDS011;45574;41.864;12.462;2022-09-27T15:03:18;14.50;;;2.83;;
43756;SDS011;45574;41.864;12.462;2022-09-27T15:06:09;15.25;;;2.58;;
43756;SDS011;45574;41.864;12.462;2022-09-27T15:09:12;12.75;;;2.75;;
43756;SDS011;45574;41.864;12.462;2022-09-27T15:12:15;23.52;;;3.55;;
43756;SDS011;45574;41.864;12.462;2022-09-27T15:15:11;27.55;;;3.90;;
43756;SDS011;45574;41.864;12.462;2022-09-27T15:21:36;20.33;;;4.35;;
43756;SDS011;45574;41.864;12.462;2022-09-27T15:27:28;23.80;;;4.07;;
43756;SDS011;45574;41.864;12.462;2022-09-27T15:30:41;27.45;;;3.97;;
43756;SDS011;45574;41.864;12.462;2022-09-27T15:33:39;28.10;;;4.70;;
43756;SDS011;45574;41.864;12.462;2022-09-27T15:39:51;29.73;;;4.85;;
43756;SDS011;45574;41.864;12.462;2022-09-27T15:42:53;30.33;;;6.35;;
43756;SDS011;45574;41.864;12.462;2022-09-27T15:45:53;30.08;;;5.53;;
43756;SDS011;45574;41.864;12.462;2022-09-27T15:52:38;23.77;;;4.45;;
43756;SDS011;45574;41.864;12.462;2022-09-27T15:55:40;21.83;;;4.45;;
43756;SDS011;45574;41.864;12.462;2022-09-27T15:58:28;35.08;;;6.85;;
43756;SDS011;45574;41.864;12.462;2022-09-27T16:01:17;36.88;;;12.10;;
43756;SDS011;45574;41.864;12.462;2022-09-27T16:04:07;36.42;;;9.35;;
43756;SDS011;45574;41.864;12.462;2022-09-27T16:06:57;36.90;;;6.20;;
43756;SDS011;45574;41.864;12.462;2022-09-27T16:09:46;19.20;;;3.90;;
43756;SDS011;45574;41.864;12.462;2022-09-27T16:12:34;25.55;;;4.65;;
43756;SDS011;45574;41.864;12.462;2022-09-27T16:15:21;28.35;;;4.18;;
43756;SDS011;45574;41.864;12.462;2022-09-27T16:18:08;31.80;;;4.40;;
43756;SDS011;45574;41.864;12.462;2022-09-27T16:20:55;27.02;;;4.95;;
43756;SDS011;45574;41.864;12.462;2022-09-27T16:23:42;21.35;;;4.47;;
43756;SDS011;45574;41.864;12.462;2022-09-27T16:26:29;26.52;;;4.45;;
43756;SDS011;45574;41.864;12.462;2022-09-27T16:29:15;20.67;;;4.15;;
43756;SDS011;45574;41.864;12.462;2022-09-27T16:32:02;21.95;;;4.20;;
43756;SDS011;45574;41.864;12.462;2022-09-27T16:34:49;24.42;;;4.70;;
43756;SDS011;45574;41.864;12.462;2022-09-27T16:37:35;24.55;;;3.92;;
43756;SDS011;45574;41.864;12.462;2022-09-27T16:40:22;24.42;;;4.28;;
43756;SDS011;45574;41.864;12.462;2022-09-27T16:43:11;29.13;;;5.00;;
43756;SDS011;45574;41.864;12.462;2022-09-27T16:46:07;28.85;;;4.95;;
43756;SDS011;45574;41.864;12.462;2022-09-27T16:48:56;30.77;;;5.22;;
43756;SDS011;45574;41.864;12.462;2022-09-27T16:51:42;27.92;;;4.78;;
43756;SDS011;45574;41.864;12.462;2022-09-27T16:54:50;17.25;;;3.83;;
43756;SDS011;45574;41.864;12.462;2022-09-27T16:57:37;23.55;;;3.72;;
43756;SDS011;45574;41.864;12.462;2022-09-27T17:00:23;25.40;;;4.00;;
43756;SDS011;45574;41.864;12.462;2022-09-27T17:03:10;23.88;;;4.53;;
43756;SDS011;45574;41.864;12.462;2022-09-27T17:05:59;21.83;;;4.47;;
43756;SDS011;45574;41.864;12.462;2022-09-27T17:08:46;31.90;;;4.57;;
43756;SDS011;45574;41.864;12.462;2022-09-27T17:11:33;30.42;;;5.03;;
43756;SDS011;45574;41.864;12.462;2022-09-27T17:14:20;26.48;;;4.68;;
43756;SDS011;45574;41.864;12.462;2022-09-27T17:17:07;29.88;;;5.30;;
43756;SDS011;45574;41.864;12.462;2022-09-27T17:19:54;27.67;;;4.32;;
43756;SDS011;45574;41.864;12.462;2022-09-27T17:22:40;29.17;;;5.40;;
43756;SDS011;45574;41.864;12.462;2022-09-27T17:25:27;27.05;;;4.38;;
43756;SDS011;45574;41.864;12.462;2022-09-27T17:28:13;31.20;;;5.30;;
43756;SDS011;45574;41.864;12.462;2022-09-27T17:31:00;35.28;;;5.68;;
43756;SDS011;45574;41.864;12.462;2022-09-27T17:33:51;29.60;;;5.38;;
43756;SDS011;45574;41.864;12.462;2022-09-27T17:36:39;26.52;;;5.18;;
43756;SDS011;45574;41.864;12.462;2022-09-27T17:39:27;29.88;;;5.35;;
43756;SDS011;45574;41.864;12.462;2022-09-27T17:42:13;30.73;;;4.63;;
43756;SDS011;45574;41.864;12.462;2022-09-27T17:48:11;33.67;;;5.45;;
43756;SDS011;45574;41.864;12.462;2022-09-27T17:51:16;30.08;;;5.25;;
43756;SDS011;45574;41.864;12.462;2022-09-27T17:54:05;30.55;;;5.45;;
43756;SDS011;45574;41.864;12.462;2022-09-27T17:56:53;33.75;;;5.45;;
43756;SDS011;45574;41.864;12.462;2022-09-27T17:59:41;31.70;;;5.18;;
43756;SDS011;45574;41.864;12.462;2022-09-27T18:02:29;28.48;;;4.90;;
43756;SDS011;45574;41.864;12.462;2022-09-27T18:05:16;25.95;;;4.97;;
43756;SDS011;45574;41.864;12.462;2022-09-27T18:08:05;31.00;;;4.50;;
43756;SDS011;45574;41.864;12.462;2022-09-27T18:10:52;28.95;;;4.57;;
43756;SDS011;45574;41.864;12.462;2022-09-27T18:13:40;29.05;;;4.50;;
43756;SDS011;45574;41.864;12.462;2022-09-27T18:16:28;32.78;;;5.32;;
43756;SDS011;45574;41.864;12.462;2022-09-27T18:19:17;29.88;;;4.47;;
43756;SDS011;45574;41.864;12.462;2022-09-27T18:22:03;28.75;;;4.72;;
43756;SDS011;45574;41.864;12.462;2022-09-27T18:24:53;31.33;;;4.43;;
43756;SDS011;45574;41.864;12.462;2022-09-27T18:27:39;33.10;;;5.22;;
43756;SDS011;45574;41.864;12.462;2022-09-27T18:30:28;31.23;;;5.18;;
43756;SDS011;45574;41.864;12.462;2022-09-27T18:33:14;26.85;;;5.15;;
43756;SDS011;45574;41.864;12.462;2022-09-27T18:36:04;31.98;;;5.15;;
43756;SDS011;45574;41.864;12.462;2022-09-27T18:38:52;34.20;;;5.90;;
43756;SDS011;45574;41.864;12.462;2022-09-27T18:41:47;28.90;;;5.15;;
43756;SDS011;45574;41.864;12.462;2022-09-27T18:44:34;32.85;;;5.30;;
43756;SDS011;45574;41.864;12.462;2022-09-27T18:47:20;30.90;;;5.10;;
43756;SDS011;45574;41.864;12.462;2022-09-27T18:50:08;34.22;;;6.03;;
43756;SDS011;45574;41.864;12.462;2022-09-27T18:52:56;31.65;;;5.07;;
43756;SDS011;45574;41.864;12.462;2022-09-27T18:55:42;32.45;;;5.78;;
43756;SDS011;45574;41.864;12.462;2022-09-27T18:58:29;32.38;;;6.07;;
43756;SDS011;45574;41.864;12.462;2022-09-27T19:01:18;33.70;;;5.72;;
43756;SDS011;45574;41.864;12.462;2022-09-27T19:04:07;27.85;;;5.68;;
43756;SDS011;45574;41.864;12.462;2022-09-27T19:06:54;29.25;;;5.90;;
43756;SDS011;45574;41.864;12.462;2022-09-27T19:09:44;33.58;;;6.35;;
43756;SDS011;45574;41.864;12.462;2022-09-27T19:12:30;36.50;;;5.72;;
43756;SDS011;45574;41.864;12.462;2022-09-27T19:15:17;43.58;;;5.55;;
43756;SDS011;45574;41.864;12.462;2022-09-27T19:18:03;43.33;;;7.03;;
43756;SDS011;45574;41.864;12.462;2022-09-27T19:20:50;33.28;;;6.20;;
43756;SDS011;45574;41.864;12.462;2022-09-27T19:23:37;38.63;;;6.45;;
43756;SDS011;45574;41.864;12.462;2022-09-27T19:26:24;37.33;;;5.90;;
43756;SDS011;45574;41.864;12.462;2022-09-27T19:29:14;44.03;;;8.15;;
43756;SDS011;45574;41.864;12.462;2022-09-27T19:32:01;32.75;;;6.50;;
43756;SDS011;45574;41.864;12.462;2022-09-27T19:34:47;35.10;;;6.82;;
43756;SDS011;45574;41.864;12.462;2022-09-27T19:37:37;35.97;;;6.03;;
43756;SDS011;45574;41.864;12.462;2022-09-27T19:40:24;38.38;;;6.93;;
43756;SDS011;45574;41.864;12.462;2022-09-27T19:43:11;35.13;;;5.72;;
43756;SDS011;45574;41.864;12.462;2022-09-27T19:46:08;35.92;;;6.45;;
43756;SDS011;45574;41.864;12.462;2022-09-27T19:48:58;48.78;;;7.82;;
43756;SDS011;45574;41.864;12.462;2022-09-27T19:51:45;37.17;;;7.15;;
43756;SDS011;45574;41.864;12.462;2022-09-27T19:54:31;39.25;;;6.90;;
43756;SDS011;45574;41.864;12.462;2022-09-27T19:57:18;39.38;;;7.03;;
43756;SDS011;45574;41.864;12.462;2022-09-27T20:00:05;37.72;;;7.13;;
43756;SDS011;45574;41.864;12.462;2022-09-27T20:02:52;44.45;;;7.10;;
43756;SDS011;45574;41.864;12.462;2022-09-27T20:05:38;44.38;;;8.48;;
43756;SDS011;45574;41.864;12.462;2022-09-27T20:08:25;43.08;;;7.47;;
43756;SDS011;45574;41.864;12.462;2022-09-27T20:11:13;37.33;;;7.85;;
43756;SDS011;45574;41.864;12.462;2022-09-27T20:14:01;42.10;;;7.47;;
43756;SDS011;45574;41.864;12.462;2022-09-27T20:16:48;40.78;;;7.32;;
43756;SDS011;45574;41.864;12.462;2022-09-27T20:19:35;36.65;;;6.70;;
43756;SDS011;45574;41.864;12.462;2022-09-27T20:22:21;42.05;;;6.80;;
43756;SDS011;45574;41.864;12.462;2022-09-27T20:25:08;45.30;;;6.38;;
43756;SDS011;45574;41.864;12.462;2022-09-27T20:27:54;35.30;;;5.97;;
43756;SDS011;45574;41.864;12.462;2022-09-27T20:30:41;37.28;;;6.95;;
43756;SDS011;45574;41.864;12.462;2022-09-27T20:33:27;40.08;;;6.65;;
43756;SDS011;45574;41.864;12.462;2022-09-27T20:36:30;37.03;;;6.50;;
43756;SDS011;45574;41.864;12.462;2022-09-27T20:39:18;41.47;;;6.80;;
43756;SDS011;45574;41.864;12.462;2022-09-27T20:42:07;37.72;;;6.60;;
43756;SDS011;45574;41.864;12.462;2022-09-27T20:44:53;42.22;;;7.22;;
43756;SDS011;45574;41.864;12.462;2022-09-27T20:47:40;40.95;;;7.10;;
43756;SDS011;45574;41.864;12.462;2022-09-27T20:50:27;38.92;;;6.10;;
43756;SDS011;45574;41.864;12.462;2022-09-27T20:53:14;38.97;;;6.95;;
43756;SDS011;45574;41.864;12.462;2022-09-27T20:56:00;50.42;;;9.25;;
43756;SDS011;45574;41.864;12.462;2022-09-27T20:58:50;52.53;;;7.88;;
43756;SDS011;45574;41.864;12.462;2022-09-27T21:01:40;40.55;;;7.78;;
43756;SDS011;45574;41.864;12.462;2022-09-27T21:04:28;45.53;;;6.35;;
43756;SDS011;45574;41.864;12.462;2022-09-27T21:07:16;45.50;;;7.72;;
43756;SDS011;45574;41.864;12.462;2022-09-27T21:10:03;44.58;;;6.45;;
43756;SDS011;45574;41.864;12.462;2022-09-27T21:12:49;49.95;;;7.70;;
43756;SDS011;45574;41.864;12.462;2022-09-27T21:15:36;48.42;;;7.28;;
43756;SDS011;45574;41.864;12.462;2022-09-27T21:18:22;42.97;;;6.80;;
43756;SDS011;45574;41.864;12.462;2022-09-27T21:21:12;41.38;;;6.93;;
43756;SDS011;45574;41.864;12.462;2022-09-27T21:24:02;47.17;;;7.47;;
43756;SDS011;45574;41.864;12.462;2022-09-27T21:26:49;44.78;;;6.97;;
43756;SDS011;45574;41.864;12.462;2022-09-27T21:29:36;44.10;;;7.50;;
43756;SDS011;45574;41.864;12.462;2022-09-27T21:32:22;35.03;;;5.28;;
43756;SDS011;45574;41.864;12.462;2022-09-27T21:35:08;42.78;;;6.15;;
43756;SDS011;45574;41.864;12.462;2022-09-27T21:37:55;34.33;;;6.07;;
43756;SDS011;45574;41.864;12.462;2022-09-27T21:40:42;40.70;;;6.18;;
43756;SDS011;45574;41.864;12.462;2022-09-27T21:43:30;36.65;;;5.57;;
43756;SDS011;45574;41.864;12.462;2022-09-27T21:46:21;37.13;;;6.07;;
43756;SDS011;45574;41.864;12.462;2022-09-27T21:49:09;30.40;;;5.70;;
43756;SDS011;45574;41.864;12.462;2022-09-27T21:51:56;43.40;;;6.68;;
43756;SDS011;45574;41.864;12.462;2022-09-27T21:54:42;34.13;;;6.28;;
43756;SDS011;45574;41.864;12.462;2022-09-27T21:57:32;39.58;;;6.03;;
43756;SDS011;45574;41.864;12.462;2022-09-27T22:00:18;37.50;;;6.47;;
43756;SDS011;45574;41.864;12.462;2022-09-27T22:03:10;40.30;;;6.85;;
43756;SDS011;45574;41.864;12.462;2022-09-27T22:05:56;43.50;;;7.35;;
43756;SDS011;45574;41.864;12.462;2022-09-27T22:08:44;39.20;;;6.38;;
43756;SDS011;45574;41.864;12.462;2022-09-27T22:11:33;35.65;;;6.53;;
43756;SDS011;45574;41.864;12.462;2022-09-27T22:14:21;37.08;;;7.00;;
43756;SDS011;45574;41.864;12.462;2022-09-27T22:17:08;42.65;;;7.53;;